sensor_id;sensor_type;location;lat;lon;timestamp;pressure;altitude;pressure_sealevel;temperature
10869;BMP180;62667;48.698;8.762;2024-01-15T00:02:14;94888.00;;;-2.90
10869;BMP180;62667;48.698;8.762;2024-01-15T00:04:43;94873.00;;;-2.70
10869;BMP180;62667;48.698;8.762;2024-01-15T00:07:10;94874.00;;;-2.80
10869;BMP180;62667;48.698;8.762;2024-01-15T00:09:37;94874.00;;;-2.70
10869;BMP180;62667;48.698;8.762;2024-01-15T00:12:06;94879.00;;;-2.70
10869;BMP180;62667;48.698;8.762;2024-01-15T00:14:33;94869.00;;;-2.70
10869;BMP180;62667;48.698;8.762;2024-01-15T00:17:01;94869.00;;;-2.60
10869;BMP180;62667;48.698;8.762;2024-01-15T00:19:28;94873.00;;;-2.50
10869;BMP180;62667;48.698;8.762;2024-01-15T00:21:59;94861.00;;;-2.50
10869;BMP180;62667;48.698;8.762;2024-01-15T00:24:27;94865.00;;;-2.50
10869;BMP180;62667;48.698;8.762;2024-01-15T00:26:54;94864.00;;;-2.60
10869;BMP180;62667;48.698;8.762;2024-01-15T00:29:21;94859.00;;;-2.50
10869;BMP180;62667;48.698;8.762;2024-01-15T00:31:49;94860.00;;;-2.50
10869;BMP180;62667;48.698;8.762;2024-01-15T00:34:16;94854.00;;;-2.50
10869;BMP180;62667;48.698;8.762;2024-01-15T00:36:43;94817.00;;;-2.60
10869;BMP180;62667;48.698;8.762;2024-01-15T00:39:12;94854.00;;;-2.60
10869;BMP180;62667;48.698;8.762;2024-01-15T00:41:40;94853.00;;;-2.50
10869;BMP180;62667;48.698;8.762;2024-01-15T00:44:07;94855.00;;;-2.40
10869;BMP180;62667;48.698;8.762;2024-01-15T00:46:42;94856.00;;;-2.30
10869;BMP180;62667;48.698;8.762;2024-01-15T00:49:10;94846.00;;;-2.70
10869;BMP180;62667;48.698;8.762;2024-01-15T00:51:37;94852.00;;;-2.70
10869;BMP180;62667;48.698;8.762;2024-01-15T00:54:05;94858.00;;;-2.60
10869;BMP180;62667;48.698;8.762;2024-01-15T00:56:34;94853.00;;;-2.50
10869;BMP180;62667;48.698;8.762;2024-01-15T00:59:01;94856.00;;;-2.40
10869;BMP180;62667;48.698;8.762;2024-01-15T01:01:29;94862.00;;;-2.40
10869;BMP180;62667;48.698;8.762;2024-01-15T01:03:56;94868.00;;;-2.30
10869;BMP180;62667;48.698;8.762;2024-01-15T01:06:24;94860.00;;;-2.30
10869;BMP180;62667;48.698;8.762;2024-01-15T01:08:52;94865.00;;;-2.60
10869;BMP180;62667;48.698;8.762;2024-01-15T01:11:19;94858.00;;;-2.80
10869;BMP180;62667;48.698;8.762;2024-01-15T01:13:48;94848.00;;;-3.00
10869;BMP180;62667;48.698;8.762;2024-01-15T01:16:15;94849.00;;;-2.90
10869;BMP180;62667;48.698;8.762;2024-01-15T01:18:43;94848.00;;;-2.80
10869;BMP180;62667;48.698;8.762;2024-01-15T01:21:10;94847.00;;;-2.80
10869;BMP180;62667;48.698;8.762;2024-01-15T01:23:37;94852.00;;;-2.70
10869;BMP180;62667;48.698;8.762;2024-01-15T01:26:05;94855.00;;;-2.40
10869;BMP180;62667;48.698;8.762;2024-01-15T01:28:32;94849.00;;;-2.40
10869;BMP180;62667;48.698;8.762;2024-01-15T01:31:01;94855.00;;;-2.60
10869;BMP180;62667;48.698;8.762;2024-01-15T01:33:29;94853.00;;;-2.60
10869;BMP180;62667;48.698;8.762;2024-01-15T01:35:56;94843.00;;;-2.60
10869;BMP180;62667;48.698;8.762;2024-01-15T01:38:23;94840.00;;;-2.60
10869;BMP180;62667;48.698;8.762;2024-01-15T01:40:51;94836.00;;;-2.50
10869;BMP180;62667;48.698;8.762;2024-01-15T01:43:18;94847.00;;;-2.80
10869;BMP180;62667;48.698;8.762;2024-01-15T01:45:45;94838.00;;;-2.80
10869;BMP180;62667;48.698;8.762;2024-01-15T01:48:14;94837.00;;;-2.80
10869;BMP180;62667;48.698;8.762;2024-01-15T01:50:42;94842.00;;;-2.70
10869;BMP180;62667;48.698;8.762;2024-01-15T01:53:09;94836.00;;;-2.70
10869;BMP180;62667;48.698;8.762;2024-01-15T01:55:37;94835.00;;;-2.60
10869;BMP180;62667;48.698;8.762;2024-01-15T01:58:05;94850.00;;;-2.60
10869;BMP180;62667;48.698;8.762;2024-01-15T02:00:34;94850.00;;;-2.70
10869;BMP180;62667;48.698;8.762;2024-01-15T02:03:02;94835.00;;;-2.70
10869;BMP180;62667;48.698;8.762;2024-01-15T02:05:32;94838.00;;;-2.70
10869;BMP180;62667;48.698;8.762;2024-01-15T02:08:02;94833.00;;;-2.40
10869;BMP180;62667;48.698;8.762;2024-01-15T02:10:29;94828.00;;;-2.60
10869;BMP180;62667;48.698;8.762;2024-01-15T02:12:57;94835.00;;;-2.60
10869;BMP180;62667;48.698;8.762;2024-01-15T02:15:24;94826.00;;;-2.40
10869;BMP180;62667;48.698;8.762;2024-01-15T02:17:59;94831.00;;;-2.40
10869;BMP180;62667;48.698;8.762;2024-01-15T02:20:27;94826.00;;;-2.50
10869;BMP180;62667;48.698;8.762;2024-01-15T02:23:07;94819.00;;;-2.40
10869;BMP180;62667;48.698;8.762;2024-01-15T02:25:35;94821.00;;;-2.40
10869;BMP180;62667;48.698;8.762;2024-01-15T02:28:03;94821.00;;;-2.50
10869;BMP180;62667;48.698;8.762;2024-01-15T02:30:31;94812.00;;;-2.40
10869;BMP180;62667;48.698;8.762;2024-01-15T02:32:58;94818.00;;;-2.20
10869;BMP180;62667;48.698;8.762;2024-01-15T02:35:26;94820.00;;;-2.10
10869;BMP180;62667;48.698;8.762;2024-01-15T02:37:53;94815.00;;;-2.20
10869;BMP180;62667;48.698;8.762;2024-01-15T02:40:22;94813.00;;;-2.20
10869;BMP180;62667;48.698;8.762;2024-01-15T02:42:49;94816.00;;;-2.10
10869;BMP180;62667;48.698;8.762;2024-01-15T02:45:17;94819.00;;;-2.10
10869;BMP180;62667;48.698;8.762;2024-01-15T02:47:44;94814.00;;;-2.10
10869;BMP180;62667;48.698;8.762;2024-01-15T02:50:12;94825.00;;;-2.30
10869;BMP180;62667;48.698;8.762;2024-01-15T02:52:39;94810.00;;;-2.20
10869;BMP180;62667;48.698;8.762;2024-01-15T02:55:07;94818.00;;;-2.20
10869;BMP180;62667;48.698;8.762;2024-01-15T02:57:36;94823.00;;;-2.10
10869;BMP180;62667;48.698;8.762;2024-01-15T03:00:04;94815.00;;;-2.10
10869;BMP180;62667;48.698;8.762;2024-01-15T03:02:35;94818.00;;;-2.10
10869;BMP180;62667;48.698;8.762;2024-01-15T03:05:03;94835.00;;;-2.20
10869;BMP180;62667;48.698;8.762;2024-01-15T03:07:30;94822.00;;;-2.10
10869;BMP180;62667;48.698;8.762;2024-01-15T03:09:58;94828.00;;;-2.10
10869;BMP180;62667;48.698;8.762;2024-01-15T03:12:25;94829.00;;;-2.00
10869;BMP180;62667;48.698;8.762;2024-01-15T03:14:54;94833.00;;;-1.80
10869;BMP180;62667;48.698;8.762;2024-01-15T03:17:22;94841.00;;;-1.80
10869;BMP180;62667;48.698;8.762;2024-01-15T03:19:49;94830.00;;;-1.80
10869;BMP180;62667;48.698;8.762;2024-01-15T03:22:17;94829.00;;;-2.00
10869;BMP180;62667;48.698;8.762;2024-01-15T03:24:44;94826.00;;;-2.00
10869;BMP180;62667;48.698;8.762;2024-01-15T03:27:12;94835.00;;;-1.90
10869;BMP180;62667;48.698;8.762;2024-01-15T03:29:40;94825.00;;;-1.90
10869;BMP180;62667;48.698;8.762;2024-01-15T03:32:09;94832.00;;;-2.20
10869;BMP180;62667;48.698;8.762;2024-01-15T03:34:39;94822.00;;;-2.20
10869;BMP180;62667;48.698;8.762;2024-01-15T03:37:06;94830.00;;;-2.30
10869;BMP180;62667;48.698;8.762;2024-01-15T03:39:33;94820.00;;;-2.20
10869;BMP180;62667;48.698;8.762;2024-01-15T03:42:01;94816.00;;;-2.10
10869;BMP180;62667;48.698;8.762;2024-01-15T03:44:28;94822.00;;;-2.20
10869;BMP180;62667;48.698;8.762;2024-01-15T03:46:56;94820.00;;;-2.10
10869;BMP180;62667;48.698;8.762;2024-01-15T03:49:25;94808.00;;;-2.20
10869;BMP180;62667;48.698;8.762;2024-01-15T03:51:52;94812.00;;;-2.10
10869;BMP180;62667;48.698;8.762;2024-01-15T03:54:20;94815.00;;;-2.30
10869;BMP180;62667;48.698;8.762;2024-01-15T03:56:49;94804.00;;;-2.20
10869;BMP180;62667;48.698;8.762;2024-01-15T03:59:16;94799.00;;;-2.30
10869;BMP180;62667;48.698;8.762;2024-01-15T04:01:48;94794.00;;;-2.30
10869;BMP180;62667;48.698;8.762;2024-01-15T04:04:17;94779.00;;;-2.20
10869;BMP180;62667;48.698;8.762;2024-01-15T04:06:45;94783.00;;;-2.10
10869;BMP180;62667;48.698;8.762;2024-01-15T04:09:13;94779.00;;;-2.10
10869;BMP180;62667;48.698;8.762;2024-01-15T04:11:41;94783.00;;;-2.00
10869;BMP180;62667;48.698;8.762;2024-01-15T04:14:08;94783.00;;;-2.20
10869;BMP180;62667;48.698;8.762;2024-01-15T04:16:36;94779.00;;;-2.10
10869;BMP180;62667;48.698;8.762;2024-01-15T04:19:04;94776.00;;;-1.90
10869;BMP180;62667;48.698;8.762;2024-01-15T04:21:31;94776.00;;;-2.10
10869;BMP180;62667;48.698;8.762;2024-01-15T04:24:00;94783.00;;;-1.90
10869;BMP180;62667;48.698;8.762;2024-01-15T04:26:27;94786.00;;;-2.00
10869;BMP180;62667;48.698;8.762;2024-01-15T04:28:55;94777.00;;;-2.10
10869;BMP180;62667;48.698;8.762;2024-01-15T04:31:23;94783.00;;;-1.90
10869;BMP180;62667;48.698;8.762;2024-01-15T04:33:51;94776.00;;;-2.30
10869;BMP180;62667;48.698;8.762;2024-01-15T04:36:18;94772.00;;;-2.30
10869;BMP180;62667;48.698;8.762;2024-01-15T04:38:45;94770.00;;;-2.10
10869;BMP180;62667;48.698;8.762;2024-01-15T04:41:14;94767.00;;;-2.00
10869;BMP180;62667;48.698;8.762;2024-01-15T04:43:42;94770.00;;;-2.10
10869;BMP180;62667;48.698;8.762;2024-01-15T04:46:10;94777.00;;;-2.00
10869;BMP180;62667;48.698;8.762;2024-01-15T04:48:37;94774.00;;;-1.80
10869;BMP180;62667;48.698;8.762;2024-01-15T04:51:05;94777.00;;;-2.00
10869;BMP180;62667;48.698;8.762;2024-01-15T04:53:34;94776.00;;;-2.10
10869;BMP180;62667;48.698;8.762;2024-01-15T04:56:04;94771.00;;;-2.20
10869;BMP180;62667;48.698;8.762;2024-01-15T04:58:32;94774.00;;;-2.20
10869;BMP180;62667;48.698;8.762;2024-01-15T05:01:00;94788.00;;;-2.10
10869;BMP180;62667;48.698;8.762;2024-01-15T05:03:27;94779.00;;;-2.00
10869;BMP180;62667;48.698;8.762;2024-01-15T05:05:55;94773.00;;;-1.90
10869;BMP180;62667;48.698;8.762;2024-01-15T05:08:23;94762.00;;;-2.10
10869;BMP180;62667;48.698;8.762;2024-01-15T05:10:50;94762.00;;;-2.00
10869;BMP180;62667;48.698;8.762;2024-01-15T05:13:17;94774.00;;;-2.00
10869;BMP180;62667;48.698;8.762;2024-01-15T05:15:46;94763.00;;;-2.10
10869;BMP180;62667;48.698;8.762;2024-01-15T05:18:14;94763.00;;;-2.10
10869;BMP180;62667;48.698;8.762;2024-01-15T05:20:41;94769.00;;;-2.00
10869;BMP180;62667;48.698;8.762;2024-01-15T05:23:09;94772.00;;;-1.80
10869;BMP180;62667;48.698;8.762;2024-01-15T05:25:36;94769.00;;;-2.00
10869;BMP180;62667;48.698;8.762;2024-01-15T05:28:04;94759.00;;;-2.10
10869;BMP180;62667;48.698;8.762;2024-01-15T05:30:32;94763.00;;;-2.30
10869;BMP180;62667;48.698;8.762;2024-01-15T05:33:00;94744.00;;;-2.20
10869;BMP180;62667;48.698;8.762;2024-01-15T05:35:29;94747.00;;;-2.20
10869;BMP180;62667;48.698;8.762;2024-01-15T05:37:56;94741.00;;;-2.10
10869;BMP180;62667;48.698;8.762;2024-01-15T05:40:24;94752.00;;;-2.20
10869;BMP180;62667;48.698;8.762;2024-01-15T05:42:51;94746.00;;;-2.20
10869;BMP180;62667;48.698;8.762;2024-01-15T05:45:19;94753.00;;;-2.10
10869;BMP180;62667;48.698;8.762;2024-01-15T05:47:46;94762.00;;;-2.00
10869;BMP180;62667;48.698;8.762;2024-01-15T05:50:15;94754.00;;;-2.10
10869;BMP180;62667;48.698;8.762;2024-01-15T05:52:42;94755.00;;;-1.80
10869;BMP180;62667;48.698;8.762;2024-01-15T05:55:09;94755.00;;;-2.30
10869;BMP180;62667;48.698;8.762;2024-01-15T05:57:37;94749.00;;;-2.30
10869;BMP180;62667;48.698;8.762;2024-01-15T06:00:05;94746.00;;;-2.30
10869;BMP180;62667;48.698;8.762;2024-01-15T06:02:34;94747.00;;;-2.30
10869;BMP180;62667;48.698;8.762;2024-01-15T06:05:02;94750.00;;;-2.40
10869;BMP180;62667;48.698;8.762;2024-01-15T06:07:31;94756.00;;;-2.40
10869;BMP180;62667;48.698;8.762;2024-01-15T06:09:58;94741.00;;;-2.40
10869;BMP180;62667;48.698;8.762;2024-01-15T06:12:25;94742.00;;;-2.40
10869;BMP180;62667;48.698;8.762;2024-01-15T06:14:54;94740.00;;;-2.40
10869;BMP180;62667;48.698;8.762;2024-01-15T06:17:21;94737.00;;;-2.20
10869;BMP180;62667;48.698;8.762;2024-01-15T06:19:48;94726.00;;;-2.30
10869;BMP180;62667;48.698;8.762;2024-01-15T06:22:16;94739.00;;;-2.10
10869;BMP180;62667;48.698;8.762;2024-01-15T06:24:45;94734.00;;;-2.20
10869;BMP180;62667;48.698;8.762;2024-01-15T06:27:12;94725.00;;;-2.10
10869;BMP180;62667;48.698;8.762;2024-01-15T06:29:44;94720.00;;;-2.20
10869;BMP180;62667;48.698;8.762;2024-01-15T06:32:11;94723.00;;;-2.10
10869;BMP180;62667;48.698;8.762;2024-01-15T06:34:39;94713.00;;;-2.10
10869;BMP180;62667;48.698;8.762;2024-01-15T06:37:06;94722.00;;;-2.10
10869;BMP180;62667;48.698;8.762;2024-01-15T06:39:34;94726.00;;;-1.80
10869;BMP180;62667;48.698;8.762;2024-01-15T06:42:04;94717.00;;;-1.90
10869;BMP180;62667;48.698;8.762;2024-01-15T06:44:31;94710.00;;;-1.90
10869;BMP180;62667;48.698;8.762;2024-01-15T06:46:58;94705.00;;;-1.90
10869;BMP180;62667;48.698;8.762;2024-01-15T06:49:28;94706.00;;;-2.00
10869;BMP180;62667;48.698;8.762;2024-01-15T06:51:56;94700.00;;;-2.00
10869;BMP180;62667;48.698;8.762;2024-01-15T06:54:23;94713.00;;;-2.00
10869;BMP180;62667;48.698;8.762;2024-01-15T06:56:52;94692.00;;;-2.20
10869;BMP180;62667;48.698;8.762;2024-01-15T06:59:21;94703.00;;;-2.10
10869;BMP180;62667;48.698;8.762;2024-01-15T07:01:48;94700.00;;;-2.20
10869;BMP180;62667;48.698;8.762;2024-01-15T07:04:15;94703.00;;;-2.10
10869;BMP180;62667;48.698;8.762;2024-01-15T07:06:43;94697.00;;;-2.10
10869;BMP180;62667;48.698;8.762;2024-01-15T07:09:11;94693.00;;;-2.20
10869;BMP180;62667;48.698;8.762;2024-01-15T07:11:38;94694.00;;;-2.30
10869;BMP180;62667;48.698;8.762;2024-01-15T07:14:05;94684.00;;;-2.30
10869;BMP180;62667;48.698;8.762;2024-01-15T07:16:34;94696.00;;;-2.20
10869;BMP180;62667;48.698;8.762;2024-01-15T07:19:01;94692.00;;;-2.20
10869;BMP180;62667;48.698;8.762;2024-01-15T07:21:29;94711.00;;;-2.20
10869;BMP180;62667;48.698;8.762;2024-01-15T07:23:57;94706.00;;;-2.20
10869;BMP180;62667;48.698;8.762;2024-01-15T07:26:24;94695.00;;;-2.10
10869;BMP180;62667;48.698;8.762;2024-01-15T07:28:52;94711.00;;;-1.90
10869;BMP180;62667;48.698;8.762;2024-01-15T07:31:22;94702.00;;;-1.90
10869;BMP180;62667;48.698;8.762;2024-01-15T07:33:51;94705.00;;;-1.90
10869;BMP180;62667;48.698;8.762;2024-01-15T07:36:18;94703.00;;;-1.90
10869;BMP180;62667;48.698;8.762;2024-01-15T07:38:46;94710.00;;;-2.10
10869;BMP180;62667;48.698;8.762;2024-01-15T07:41:14;94722.00;;;-1.90
10869;BMP180;62667;48.698;8.762;2024-01-15T07:43:41;94709.00;;;-2.10
10869;BMP180;62667;48.698;8.762;2024-01-15T07:46:09;94710.00;;;-2.00
10869;BMP180;62667;48.698;8.762;2024-01-15T07:48:37;94724.00;;;-2.00
10869;BMP180;62667;48.698;8.762;2024-01-15T07:51:06;94705.00;;;-1.90
10869;BMP180;62667;48.698;8.762;2024-01-15T07:53:36;94712.00;;;-1.80
10869;BMP180;62667;48.698;8.762;2024-01-15T07:56:03;94714.00;;;-2.00
10869;BMP180;62667;48.698;8.762;2024-01-15T07:58:31;94705.00;;;-1.90
10869;BMP180;62667;48.698;8.762;2024-01-15T08:00:58;94700.00;;;-1.80
10869;BMP180;62667;48.698;8.762;2024-01-15T08:03:26;94700.00;;;-1.80
10869;BMP180;62667;48.698;8.762;2024-01-15T08:05:53;94723.00;;;-1.70
10869;BMP180;62667;48.698;8.762;2024-01-15T08:08:25;94712.00;;;-1.60
10869;BMP180;62667;48.698;8.762;2024-01-15T08:10:52;94714.00;;;-1.60
10869;BMP180;62667;48.698;8.762;2024-01-15T08:13:20;94717.00;;;-1.50
10869;BMP180;62667;48.698;8.762;2024-01-15T08:15:47;94713.00;;;-1.50
10869;BMP180;62667;48.698;8.762;2024-01-15T08:18:16;94724.00;;;-1.50
10869;BMP180;62667;48.698;8.762;2024-01-15T08:20:43;94715.00;;;-1.50
10869;BMP180;62667;48.698;8.762;2024-01-15T08:23:11;94712.00;;;-1.40
10869;BMP180;62667;48.698;8.762;2024-01-15T08:25:40;94714.00;;;-1.50
10869;BMP180;62667;48.698;8.762;2024-01-15T08:28:07;94724.00;;;-1.20
10869;BMP180;62667;48.698;8.762;2024-01-15T08:30:35;94728.00;;;-1.20
10869;BMP180;62667;48.698;8.762;2024-01-15T08:33:03;94732.00;;;-1.40
10869;BMP180;62667;48.698;8.762;2024-01-15T08:35:30;94702.00;;;-1.20
10869;BMP180;62667;48.698;8.762;2024-01-15T08:37:58;94725.00;;;-1.20
10869;BMP180;62667;48.698;8.762;2024-01-15T08:40:25;94721.00;;;-1.30
10869;BMP180;62667;48.698;8.762;2024-01-15T08:42:54;94733.00;;;-1.20
10869;BMP180;62667;48.698;8.762;2024-01-15T08:45:21;94711.00;;;-1.20
10869;BMP180;62667;48.698;8.762;2024-01-15T08:47:49;94733.00;;;-1.30
10869;BMP180;62667;48.698;8.762;2024-01-15T08:50:16;94724.00;;;-1.10
10869;BMP180;62667;48.698;8.762;2024-01-15T08:52:44;94713.00;;;-1.20
10869;BMP180;62667;48.698;8.762;2024-01-15T08:55:12;94712.00;;;-1.60
10869;BMP180;62667;48.698;8.762;2024-01-15T08:57:40;94710.00;;;-1.70
10869;BMP180;62667;48.698;8.762;2024-01-15T09:00:10;94715.00;;;-1.70
10869;BMP180;62667;48.698;8.762;2024-01-15T09:02:38;94699.00;;;-1.70
10869;BMP180;62667;48.698;8.762;2024-01-15T09:05:06;94701.00;;;-1.70
10869;BMP180;62667;48.698;8.762;2024-01-15T09:07:33;94706.00;;;-1.60
10869;BMP180;62667;48.698;8.762;2024-01-15T09:10:01;94711.00;;;-1.50
10869;BMP180;62667;48.698;8.762;2024-01-15T09:12:28;94699.00;;;-1.50
10869;BMP180;62667;48.698;8.762;2024-01-15T09:14:56;94682.00;;;-1.40
10869;BMP180;62667;48.698;8.762;2024-01-15T09:17:25;94673.00;;;-1.50
10869;BMP180;62667;48.698;8.762;2024-01-15T09:19:54;94676.00;;;-1.50
10869;BMP180;62667;48.698;8.762;2024-01-15T09:22:21;94672.00;;;-1.30
10869;BMP180;62667;48.698;8.762;2024-01-15T09:24:49;94671.00;;;-1.50
10869;BMP180;62667;48.698;8.762;2024-01-15T09:27:17;94670.00;;;-1.50
10869;BMP180;62667;48.698;8.762;2024-01-15T09:29:44;94671.00;;;-1.30
10869;BMP180;62667;48.698;8.762;2024-01-15T09:32:12;94689.00;;;-1.20
10869;BMP180;62667;48.698;8.762;2024-01-15T09:34:43;94662.00;;;-1.10
10869;BMP180;62667;48.698;8.762;2024-01-15T09:37:11;94671.00;;;-1.00
10869;BMP180;62667;48.698;8.762;2024-01-15T09:39:38;94676.00;;;-0.60
10869;BMP180;62667;48.698;8.762;2024-01-15T09:42:06;94672.00;;;-0.70
10869;BMP180;62667;48.698;8.762;2024-01-15T09:44:34;94673.00;;;-0.90
10869;BMP180;62667;48.698;8.762;2024-01-15T09:47:02;94673.00;;;-0.90
10869;BMP180;62667;48.698;8.762;2024-01-15T09:49:29;94661.00;;;-0.90
10869;BMP180;62667;48.698;8.762;2024-01-15T09:51:58;94671.00;;;-0.80
10869;BMP180;62667;48.698;8.762;2024-01-15T09:54:27;94673.00;;;-0.50
10869;BMP180;62667;48.698;8.762;2024-01-15T09:56:55;94673.00;;;-0.60
10869;BMP180;62667;48.698;8.762;2024-01-15T09:59:23;94659.00;;;-0.60
10869;BMP180;62667;48.698;8.762;2024-01-15T10:01:51;94664.00;;;-0.90
10869;BMP180;62667;48.698;8.762;2024-01-15T10:04:20;94666.00;;;-0.70
10869;BMP180;62667;48.698;8.762;2024-01-15T10:06:51;94660.00;;;-0.70
10869;BMP180;62667;48.698;8.762;2024-01-15T10:09:20;94676.00;;;-0.60
10869;BMP180;62667;48.698;8.762;2024-01-15T10:11:48;94656.00;;;-0.60
10869;BMP180;62667;48.698;8.762;2024-01-15T10:14:16;94640.00;;;-0.60
10869;BMP180;62667;48.698;8.762;2024-01-15T10:16:44;94641.00;;;-0.60
10869;BMP180;62667;48.698;8.762;2024-01-15T10:19:11;94667.00;;;-0.50
10869;BMP180;62667;48.698;8.762;2024-01-15T10:21:39;94652.00;;;-0.60
10869;BMP180;62667;48.698;8.762;2024-01-15T10:24:11;94670.00;;;-0.60
10869;BMP180;62667;48.698;8.762;2024-01-15T10:26:40;94665.00;;;-0.60
10869;BMP180;62667;48.698;8.762;2024-01-15T10:29:08;94661.00;;;-0.60
10869;BMP180;62667;48.698;8.762;2024-01-15T10:31:38;94669.00;;;-0.60
10869;BMP180;62667;48.698;8.762;2024-01-15T10:34:12;94653.00;;;-0.70
10869;BMP180;62667;48.698;8.762;2024-01-15T10:36:42;94641.00;;;-0.70
10869;BMP180;62667;48.698;8.762;2024-01-15T10:39:14;94671.00;;;-0.60
10869;BMP180;62667;48.698;8.762;2024-01-15T10:41:43;94630.00;;;-0.80
10869;BMP180;62667;48.698;8.762;2024-01-15T10:44:10;94659.00;;;-0.90
10869;BMP180;62667;48.698;8.762;2024-01-15T10:46:38;94637.00;;;-0.70
10869;BMP180;62667;48.698;8.762;2024-01-15T10:49:06;94630.00;;;-0.80
10869;BMP180;62667;48.698;8.762;2024-01-15T10:51:34;94635.00;;;-0.70
10869;BMP180;62667;48.698;8.762;2024-01-15T10:54:02;94621.00;;;-1.00
10869;BMP180;62667;48.698;8.762;2024-01-15T10:56:31;94624.00;;;-1.10
10869;BMP180;62667;48.698;8.762;2024-01-15T10:59:00;94625.00;;;-1.10
10869;BMP180;62667;48.698;8.762;2024-01-15T11:01:29;94617.00;;;-1.10
10869;BMP180;62667;48.698;8.762;2024-01-15T11:03:57;94615.00;;;-1.00
10869;BMP180;62667;48.698;8.762;2024-01-15T11:06:25;94612.00;;;-1.10
10869;BMP180;62667;48.698;8.762;2024-01-15T11:08:55;94618.00;;;-1.00
10869;BMP180;62667;48.698;8.762;2024-01-15T11:11:25;94614.00;;;-1.20
10869;BMP180;62667;48.698;8.762;2024-01-15T11:13:53;94613.00;;;-1.10
10869;BMP180;62667;48.698;8.762;2024-01-15T11:16:21;94599.00;;;-0.90
10869;BMP180;62667;48.698;8.762;2024-01-15T11:19:06;94605.00;;;-1.00
10869;BMP180;62667;48.698;8.762;2024-01-15T11:21:42;94621.00;;;-0.90
10869;BMP180;62667;48.698;8.762;2024-01-15T11:24:10;94621.00;;;-1.00
10869;BMP180;62667;48.698;8.762;2024-01-15T11:26:43;94619.00;;;-0.70
10869;BMP180;62667;48.698;8.762;2024-01-15T11:29:29;94629.00;;;-0.90
10869;BMP180;62667;48.698;8.762;2024-01-15T11:32:00;94619.00;;;-1.00
10869;BMP180;62667;48.698;8.762;2024-01-15T11:34:50;94617.00;;;-0.90
10869;BMP180;62667;48.698;8.762;2024-01-15T11:37:18;94622.00;;;-0.90
10869;BMP180;62667;48.698;8.762;2024-01-15T11:39:46;94628.00;;;-0.80
10869;BMP180;62667;48.698;8.762;2024-01-15T11:42:14;94608.00;;;-0.90
10869;BMP180;62667;48.698;8.762;2024-01-15T11:44:42;94614.00;;;-0.80
10869;BMP180;62667;48.698;8.762;2024-01-15T11:47:12;94616.00;;;-1.20
10869;BMP180;62667;48.698;8.762;2024-01-15T11:49:59;94624.00;;;-1.10
10869;BMP180;62667;48.698;8.762;2024-01-15T11:52:32;94613.00;;;-1.20
10869;BMP180;62667;48.698;8.762;2024-01-15T11:55:19;94622.00;;;-1.20
10869;BMP180;62667;48.698;8.762;2024-01-15T11:57:51;94624.00;;;-1.60
10869;BMP180;62667;48.698;8.762;2024-01-15T12:00:21;94616.00;;;-1.50
10869;BMP180;62667;48.698;8.762;2024-01-15T12:02:50;94614.00;;;-1.40
10869;BMP180;62667;48.698;8.762;2024-01-15T12:05:20;94617.00;;;-1.40
10869;BMP180;62667;48.698;8.762;2024-01-15T12:07:48;94607.00;;;-1.60
10869;BMP180;62667;48.698;8.762;2024-01-15T12:10:18;94609.00;;;-1.50
10869;BMP180;62667;48.698;8.762;2024-01-15T12:12:59;94606.00;;;-1.50
10869;BMP180;62667;48.698;8.762;2024-01-15T12:15:28;94596.00;;;-1.50
10869;BMP180;62667;48.698;8.762;2024-01-15T12:17:58;94604.00;;;-1.40
10869;BMP180;62667;48.698;8.762;2024-01-15T12:20:26;94595.00;;;-1.40
10869;BMP180;62667;48.698;8.762;2024-01-15T12:22:54;94601.00;;;-1.20
10869;BMP180;62667;48.698;8.762;2024-01-15T12:25:22;94601.00;;;-1.30
10869;BMP180;62667;48.698;8.762;2024-01-15T12:27:50;94610.00;;;-1.00
10869;BMP180;62667;48.698;8.762;2024-01-15T12:30:18;94621.00;;;-1.10
10869;BMP180;62667;48.698;8.762;2024-01-15T12:32:46;94607.00;;;-1.00
10869;BMP180;62667;48.698;8.762;2024-01-15T12:35:15;94610.00;;;-0.80
10869;BMP180;62667;48.698;8.762;2024-01-15T12:37:43;94616.00;;;-0.60
10869;BMP180;62667;48.698;8.762;2024-01-15T12:40:13;94603.00;;;-1.00
10869;BMP180;62667;48.698;8.762;2024-01-15T12:42:41;94613.00;;;-0.80
10869;BMP180;62667;48.698;8.762;2024-01-15T12:45:10;94611.00;;;-0.60
10869;BMP180;62667;48.698;8.762;2024-01-15T12:47:39;94610.00;;;-0.60
10869;BMP180;62667;48.698;8.762;2024-01-15T12:50:09;94608.00;;;-0.60
10869;BMP180;62667;48.698;8.762;2024-01-15T12:52:40;94612.00;;;-0.60
10869;BMP180;62667;48.698;8.762;2024-01-15T12:55:09;94609.00;;;-0.60
10869;BMP180;62667;48.698;8.762;2024-01-15T12:57:37;94624.00;;;-0.60
10869;BMP180;62667;48.698;8.762;2024-01-15T13:00:06;94588.00;;;-0.60
10869;BMP180;62667;48.698;8.762;2024-01-15T13:02:38;94599.00;;;-0.90
10869;BMP180;62667;48.698;8.762;2024-01-15T13:05:09;94602.00;;;-0.80
10869;BMP180;62667;48.698;8.762;2024-01-15T13:07:39;94616.00;;;-0.60
10869;BMP180;62667;48.698;8.762;2024-01-15T13:10:07;94606.00;;;-0.40
10869;BMP180;62667;48.698;8.762;2024-01-15T13:12:36;94615.00;;;-0.60
10869;BMP180;62667;48.698;8.762;2024-01-15T13:15:06;94619.00;;;-0.50
10869;BMP180;62667;48.698;8.762;2024-01-15T13:17:40;94617.00;;;-0.60
10869;BMP180;62667;48.698;8.762;2024-01-15T13:20:09;94616.00;;;-0.60
10869;BMP180;62667;48.698;8.762;2024-01-15T13:22:38;94614.00;;;-0.40
10869;BMP180;62667;48.698;8.762;2024-01-15T13:25:07;94616.00;;;-0.50
10869;BMP180;62667;48.698;8.762;2024-01-15T13:27:35;94615.00;;;-0.60
10869;BMP180;62667;48.698;8.762;2024-01-15T13:30:03;94612.00;;;-0.40
10869;BMP180;62667;48.698;8.762;2024-01-15T13:32:32;94621.00;;;-0.50
10869;BMP180;62667;48.698;8.762;2024-01-15T13:35:02;94622.00;;;-0.40
10869;BMP180;62667;48.698;8.762;2024-01-15T13:37:31;94613.00;;;-0.40
10869;BMP180;62667;48.698;8.762;2024-01-15T13:40:00;94615.00;;;-0.40
10869;BMP180;62667;48.698;8.762;2024-01-15T13:42:29;94618.00;;;-0.20
10869;BMP180;62667;48.698;8.762;2024-01-15T13:44:57;94624.00;;;-0.20
10869;BMP180;62667;48.698;8.762;2024-01-15T13:47:24;94626.00;;;-0.20
10869;BMP180;62667;48.698;8.762;2024-01-15T13:49:52;94631.00;;;-0.40
10869;BMP180;62667;48.698;8.762;2024-01-15T13:52:19;94629.00;;;-0.60
10869;BMP180;62667;48.698;8.762;2024-01-15T13:54:47;94624.00;;;-0.30
10869;BMP180;62667;48.698;8.762;2024-01-15T13:57:16;94635.00;;;-0.30
10869;BMP180;62667;48.698;8.762;2024-01-15T13:59:43;94638.00;;;-0.30
10869;BMP180;62667;48.698;8.762;2024-01-15T14:02:11;94645.00;;;-0.40
10869;BMP180;62667;48.698;8.762;2024-01-15T14:04:39;94647.00;;;-0.20
10869;BMP180;62667;48.698;8.762;2024-01-15T14:07:10;94650.00;;;-0.20
10869;BMP180;62667;48.698;8.762;2024-01-15T14:09:37;94657.00;;;-0.40
10869;BMP180;62667;48.698;8.762;2024-01-15T14:12:05;94668.00;;;-0.40
10869;BMP180;62667;48.698;8.762;2024-01-15T14:14:34;94685.00;;;-0.50
10869;BMP180;62667;48.698;8.762;2024-01-15T14:17:08;94691.00;;;-0.60